createdAt,value
2018-11-23T00:00:28.269Z,40.40
2018-11-23T00:02:58.028Z,41.68
2018-11-23T00:05:26.967Z,41.70
2018-11-23T00:07:56.628Z,42.55
2018-11-23T00:10:26.843Z,40.65
2018-11-23T00:12:55.758Z,41.58
2018-11-23T00:15:25.271Z,41.50
2018-11-23T00:17:54.181Z,39.83
2018-11-23T00:20:24.517Z,41.02
2018-11-23T00:22:53.398Z,40.90
2018-11-23T00:25:23.396Z,41.90
2018-11-23T00:27:52.665Z,42.37
2018-11-23T00:30:22.898Z,41.68
2018-11-23T00:32:52.382Z,42.05
2018-11-23T00:35:25.956Z,43.23
2018-11-23T00:37:55.380Z,43.10
2018-11-23T00:40:26.541Z,40.05
2018-11-23T00:42:55.730Z,41.95
2018-11-23T00:45:24.663Z,41.80
2018-11-23T00:47:54.310Z,40.52
2018-11-23T00:50:24.364Z,40.50
2018-11-23T00:52:54.150Z,41.83
2018-11-23T00:55:23.874Z,43.50
2018-11-23T00:57:52.910Z,42.93
2018-11-23T01:00:27.215Z,40.80
2018-11-23T01:02:56.970Z,41.58
2018-11-23T01:05:25.914Z,40.70
2018-11-23T01:07:54.887Z,43.52
2018-11-23T01:10:24.783Z,42.25
2018-11-23T01:12:54.700Z,42.62
2018-11-23T01:15:23.647Z,43.13
2018-11-23T01:17:52.569Z,42.27
2018-11-23T01:20:23.923Z,44.00
2018-11-23T01:22:53.407Z,44.58
2018-11-23T01:25:23.346Z,44.98
2018-11-23T01:27:53.361Z,43.87
2018-11-23T01:30:30.847Z,43.70
2018-11-23T01:32:59.833Z,44.65
2018-11-23T01:35:28.781Z,42.87
2018-11-23T01:37:57.668Z,43.92
2018-11-23T01:40:27.838Z,41.85
2018-11-23T01:42:57.121Z,41.92
2018-11-23T01:45:26.105Z,42.05
2018-11-23T01:47:55.002Z,42.85
2018-11-23T01:50:26.547Z,42.98
2018-11-23T01:52:55.470Z,41.45
2018-11-23T01:55:25.075Z,41.18
2018-11-23T01:57:54.011Z,39.92
2018-11-23T02:00:24.297Z,40.23
2018-11-23T02:02:54.094Z,42.20
2018-11-23T02:05:23.059Z,40.80
2018-11-23T02:07:51.998Z,39.83
2018-11-23T02:10:21.072Z,42.75
2018-11-23T02:12:49.994Z,40.58
2018-11-23T02:15:21.125Z,40.58
2018-11-23T02:17:50.702Z,39.95
2018-11-23T02:20:20.330Z,41.75
2018-11-23T02:22:49.278Z,41.23
2018-11-23T02:25:18.226Z,39.88
2018-11-23T02:27:47.182Z,42.70
2018-11-23T02:30:20.868Z,41.70
2018-11-23T02:32:49.836Z,40.12
2018-11-23T02:35:18.835Z,40.95
2018-11-23T02:37:47.811Z,42.83
2018-11-23T02:40:17.935Z,41.90
2018-11-23T02:42:46.956Z,41.63
2018-11-23T02:45:17.470Z,41.98
2018-11-23T02:47:47.102Z,42.45
2018-11-23T02:50:16.117Z,43.65
2018-11-23T02:52:45.404Z,42.17
2018-11-23T02:55:15.491Z,42.67
2018-11-23T02:57:44.478Z,43.00
2018-11-23T03:00:16.050Z,41.88
2018-11-23T03:02:45.091Z,42.30
2018-11-23T03:05:15.762Z,43.70
2018-11-23T03:07:44.810Z,44.75
2018-11-23T03:10:14.792Z,41.08
2018-11-23T03:12:44.419Z,42.58
2018-11-23T03:15:15.210Z,41.27
2018-11-23T03:17:44.745Z,43.68
2018-11-23T03:20:15.240Z,43.50
2018-11-23T03:22:44.266Z,44.48
2018-11-23T03:25:13.863Z,44.40
2018-11-23T03:27:42.803Z,44.67
2018-11-23T03:30:15.305Z,43.60
2018-11-23T03:32:45.053Z,43.50
2018-11-23T03:35:14.095Z,42.75
2018-11-23T03:37:43.162Z,42.20
2018-11-23T03:40:12.114Z,42.85
2018-11-23T03:42:41.084Z,43.98
2018-11-23T03:45:11.418Z,44.13
2018-11-23T03:47:40.716Z,44.13
2018-11-23T03:50:10.745Z,43.17
2018-11-23T03:52:39.719Z,42.00
2018-11-23T03:55:08.649Z,41.20
2018-11-23T03:57:37.569Z,43.00
2018-11-23T04:00:17.948Z,42.43
2018-11-23T04:02:46.959Z,42.43
2018-11-23T04:05:16.039Z,42.33
2018-11-23T04:07:44.955Z,43.92
2018-11-23T04:10:14.832Z,41.95
2018-11-23T04:12:44.264Z,42.85
2018-11-23T04:15:13.655Z,42.48
2018-11-23T04:17:42.756Z,41.80
2018-11-23T04:20:16.330Z,41.90
2018-11-23T04:22:45.263Z,42.60
2018-11-23T04:25:14.542Z,42.60
2018-11-23T04:27:43.885Z,43.20
2018-11-23T04:30:14.586Z,44.43
2018-11-23T04:32:44.011Z,44.50
2018-11-23T04:35:14.175Z,44.77
2018-11-23T04:37:44.720Z,44.27
2018-11-23T04:40:14.623Z,44.65
2018-11-23T04:42:44.347Z,44.35
2018-11-23T04:45:14.554Z,43.75
2018-11-23T04:47:44.150Z,44.10
2018-11-23T04:50:15.425Z,45.15
2018-11-23T04:52:44.714Z,41.88
2018-11-23T04:55:14.469Z,42.33
2018-11-23T04:57:44.034Z,43.25
2018-11-23T05:00:14.750Z,42.38
2018-11-23T05:02:44.317Z,42.47
2018-11-23T05:05:13.555Z,43.63
2018-11-23T05:07:43.581Z,43.95
2018-11-23T05:10:13.776Z,41.87
2018-11-23T05:12:42.691Z,42.10
2018-11-23T05:15:12.995Z,43.20
2018-11-23T05:17:42.267Z,42.88
2018-11-23T05:20:11.803Z,43.00
2018-11-23T05:22:41.015Z,41.00
2018-11-23T05:25:11.306Z,42.05
2018-11-23T05:27:40.230Z,42.57
2018-11-23T05:30:11.954Z,42.67
2018-11-23T05:32:40.926Z,42.80
2018-11-23T05:35:10.991Z,42.57
2018-11-23T05:37:39.979Z,42.40
2018-11-23T05:40:11.147Z,43.78
2018-11-23T05:42:40.109Z,43.98
2018-11-23T05:45:11.587Z,47.73
2018-11-23T05:47:40.581Z,45.23
2018-11-23T05:50:17.114Z,45.08
2018-11-23T05:52:46.179Z,43.63
2018-11-23T05:55:15.123Z,44.75
2018-11-23T05:57:44.114Z,42.13
2018-11-23T06:00:16.516Z,44.18
2018-11-23T06:02:45.487Z,43.87
2018-11-23T06:05:14.427Z,44.93
2018-11-23T06:07:43.339Z,43.60
2018-11-23T06:10:14.391Z,44.73
2018-11-23T06:12:43.347Z,43.95
2018-11-23T06:15:15.031Z,44.43
2018-11-23T06:17:44.402Z,45.30
2018-11-23T06:20:15.574Z,45.20
2018-11-23T06:22:45.735Z,45.88
2018-11-23T06:25:25.564Z,43.17
2018-11-23T06:27:54.574Z,44.08
2018-11-23T06:30:23.502Z,43.90
2018-11-23T06:33:03.690Z,42.98
2018-11-23T06:35:32.607Z,41.33
2018-11-23T06:38:01.527Z,43.27
2018-11-23T06:40:30.438Z,41.60
2018-11-23T06:42:59.802Z,42.10
2018-11-23T06:45:29.165Z,42.83
2018-11-23T06:47:58.071Z,43.65
2018-11-23T06:50:27.002Z,42.83
2018-11-23T06:52:55.903Z,43.30
2018-11-23T06:55:24.800Z,42.15
2018-11-23T06:57:53.707Z,47.33
2018-11-23T07:00:22.682Z,42.48
2018-11-23T07:02:51.570Z,44.33
2018-11-23T07:05:20.492Z,45.58
2018-11-23T07:07:49.454Z,48.42
2018-11-23T07:10:18.371Z,48.25
2018-11-23T07:12:47.266Z,49.35
2018-11-23T07:15:17.175Z,51.10
2018-11-23T07:17:45.077Z,44.85
2018-11-23T07:20:14.826Z,37.03
2018-11-23T07:22:44.100Z,34.77
2018-11-23T07:25:13.937Z,33.63
2018-11-23T07:27:43.421Z,37.23
2018-11-23T07:30:17.415Z,36.47
2018-11-23T07:32:46.390Z,36.88
2018-11-23T07:35:15.847Z,34.47
2018-11-23T07:37:44.721Z,34.90
2018-11-23T07:40:27.641Z,32.65
2018-11-23T07:42:56.915Z,33.95
2018-11-23T07:45:25.846Z,35.55
2018-11-23T07:47:54.733Z,35.60
2018-11-23T07:50:23.626Z,37.40
2018-11-23T07:52:52.522Z,36.70
2018-11-23T07:55:21.469Z,35.85
2018-11-23T07:57:50.390Z,36.77
2018-11-23T08:00:20.826Z,35.50
2018-11-23T08:02:50.079Z,35.70
2018-11-23T08:05:19.820Z,35.33
2018-11-23T08:07:48.702Z,35.83
2018-11-23T08:10:16.796Z,37.67
2018-11-23T08:12:47.090Z,37.63
2018-11-23T08:15:21.915Z,37.15
2018-11-23T08:17:50.842Z,38.75
2018-11-23T08:20:20.830Z,39.85
2018-11-23T08:22:49.746Z,37.67
2018-11-23T08:25:19.943Z,38.78
2018-11-23T08:27:49.826Z,39.40
2018-11-23T08:30:22.967Z,40.48
2018-11-23T08:32:51.898Z,42.67
2018-11-23T08:35:20.843Z,42.17
2018-11-23T08:37:49.752Z,40.90
2018-11-23T08:40:21.670Z,42.95
2018-11-23T08:42:51.573Z,41.28
2018-11-23T08:45:22.003Z,43.70
2018-11-23T08:47:50.899Z,45.00
2018-11-23T08:50:23.157Z,44.83
2018-11-23T08:52:52.058Z,43.45
2018-11-23T08:55:21.330Z,41.33
2018-11-23T08:57:50.266Z,40.30
2018-11-23T09:00:21.055Z,45.30
2018-11-23T09:02:52.132Z,43.50
2018-11-23T09:05:21.051Z,40.05
2018-11-23T09:07:51.141Z,35.98
2018-11-23T09:10:22.719Z,35.75
2018-11-23T09:12:59.998Z,34.73
2018-11-23T09:15:28.926Z,34.85
2018-11-23T09:17:57.856Z,32.78
2018-11-23T09:20:26.765Z,30.50
2018-11-23T09:22:55.698Z,31.07
2018-11-23T09:25:24.901Z,34.05
2018-11-23T09:27:53.906Z,31.70
2018-11-23T09:30:24.073Z,31.60
2018-11-23T09:32:53.733Z,32.58
2018-11-23T09:35:22.840Z,32.00
2018-11-23T09:37:52.082Z,31.10
2018-11-23T09:40:22.161Z,30.32
2018-11-23T09:42:51.418Z,31.00
2018-11-23T09:45:21.650Z,31.87
2018-11-23T09:47:51.774Z,31.85
2018-11-23T09:50:21.814Z,31.30
2018-11-23T09:52:51.933Z,31.97
2018-11-23T09:55:21.498Z,32.23
2018-11-23T09:57:50.465Z,31.33
2018-11-23T10:00:27.471Z,32.03
2018-11-23T10:02:57.093Z,31.00
2018-11-23T10:05:26.802Z,32.50
2018-11-23T10:07:57.369Z,31.77
2018-11-23T10:10:26.839Z,31.30
2018-11-23T10:12:55.749Z,30.33
2018-11-23T10:15:25.511Z,30.45
2018-11-23T10:17:54.442Z,30.30
2018-11-23T10:20:25.763Z,32.13
2018-11-23T10:22:54.962Z,31.65
2018-11-23T10:25:25.366Z,30.75
2018-11-23T10:27:54.298Z,31.05
2018-11-23T10:30:26.326Z,36.90
2018-11-23T10:32:56.762Z,30.45
2018-11-23T10:35:26.050Z,27.75
2018-11-23T10:37:56.312Z,27.25
2018-11-23T10:40:26.621Z,26.52
2018-11-23T10:42:55.528Z,27.40
2018-11-23T10:45:26.742Z,28.40
2018-11-23T10:47:56.417Z,28.00
2018-11-23T10:50:28.015Z,28.53
2018-11-23T10:52:56.931Z,27.37
2018-11-23T10:55:27.515Z,27.70
2018-11-23T10:57:56.478Z,29.65
2018-11-23T11:00:30.566Z,29.15
2018-11-23T11:03:07.680Z,29.35
2018-11-23T11:05:41.829Z,31.17
2018-11-23T11:08:10.746Z,30.40
2018-11-23T11:10:39.649Z,30.92
2018-11-23T11:13:08.607Z,30.80
2018-11-23T11:15:37.502Z,31.80
2018-11-23T11:18:06.435Z,30.97
2018-11-23T11:20:35.334Z,31.23
2018-11-23T11:23:04.271Z,33.33
2018-11-23T11:25:33.163Z,32.27
2018-11-23T11:28:02.095Z,31.75
2018-11-23T11:30:31.023Z,30.32
2018-11-23T11:32:59.948Z,33.13
2018-11-23T11:35:28.864Z,32.50
2018-11-23T11:37:57.781Z,32.48
2018-11-23T11:40:26.706Z,33.00
2018-11-23T11:42:55.614Z,33.97
2018-11-23T11:45:24.565Z,32.98
2018-11-23T11:47:53.524Z,32.10
2018-11-23T11:50:22.463Z,32.08
2018-11-23T11:52:51.467Z,31.20
2018-11-23T11:55:21.153Z,32.75
2018-11-23T11:57:50.243Z,33.05
2018-11-23T12:00:21.214Z,31.13
2018-11-23T12:02:50.206Z,33.63
2018-11-23T12:05:19.138Z,33.70
2018-11-23T12:07:48.088Z,31.68
2018-11-23T12:10:19.514Z,31.37
2018-11-23T12:12:48.437Z,31.87
2018-11-23T12:15:17.474Z,33.45
2018-11-23T12:17:46.418Z,32.20
2018-11-23T12:20:18.723Z,31.30
2018-11-23T12:22:48.167Z,29.33
2018-11-23T12:25:17.578Z,31.70
2018-11-23T12:27:46.485Z,31.40
2018-11-23T12:30:18.626Z,31.00
2018-11-23T12:32:48.706Z,33.00
2018-11-23T12:35:19.572Z,31.02
2018-11-23T12:37:48.490Z,31.07
2018-11-23T12:40:18.470Z,30.85
2018-11-23T12:42:47.976Z,31.50
2018-11-23T12:45:19.336Z,66.10
2018-11-23T12:47:48.368Z,43.37
2018-11-23T12:50:19.151Z,33.37
2018-11-23T12:52:48.121Z,31.80
2018-11-23T12:55:17.774Z,31.87
2018-11-23T12:57:46.751Z,31.10
2018-11-23T13:00:21.826Z,31.37
2018-11-23T13:02:54.141Z,30.63
2018-11-23T13:05:24.059Z,30.65
2018-11-23T13:07:53.899Z,29.20
2018-11-23T13:10:23.867Z,29.00
2018-11-23T13:12:53.275Z,30.20
2018-11-23T13:15:22.228Z,30.47
2018-11-23T13:17:53.285Z,30.95
2018-11-23T13:20:22.254Z,29.87
2018-11-23T13:22:51.196Z,30.13
2018-11-23T13:25:21.663Z,31.10
2018-11-23T13:27:50.634Z,31.37
2018-11-23T13:30:21.351Z,30.32
2018-11-23T13:32:50.272Z,30.48
2018-11-23T13:35:19.783Z,31.90
2018-11-23T13:37:48.744Z,32.00
2018-11-23T13:40:19.894Z,30.20
2018-11-23T13:42:49.262Z,30.90
2018-11-23T13:45:23.598Z,30.80
2018-11-23T13:47:52.534Z,32.45
2018-11-23T13:50:22.611Z,31.93
2018-11-23T13:52:52.814Z,31.40
2018-11-23T13:55:21.754Z,31.00
2018-11-23T13:57:50.963Z,30.82
2018-11-23T14:00:21.323Z,31.17
2018-11-23T14:02:50.306Z,35.08
2018-11-23T14:05:20.526Z,33.90
2018-11-23T14:07:52.839Z,31.82
2018-11-23T14:10:23.027Z,31.27
2018-11-23T14:12:52.010Z,31.27
2018-11-23T14:15:24.119Z,31.12
2018-11-23T14:17:54.218Z,32.80
2018-11-23T14:20:24.407Z,31.87
2018-11-23T14:22:53.483Z,32.45
2018-11-23T14:25:29.990Z,30.20
2018-11-23T14:27:59.315Z,31.20
2018-11-23T14:30:31.843Z,30.37
2018-11-23T14:33:01.912Z,31.80
2018-11-23T14:35:32.078Z,29.75
2018-11-23T14:38:01.728Z,30.50
2018-11-23T14:40:30.664Z,29.10
2018-11-23T14:42:59.708Z,30.80
2018-11-23T14:45:29.862Z,32.07
2018-11-23T14:48:03.751Z,30.80
2018-11-23T14:50:34.015Z,31.57
2018-11-23T14:53:02.975Z,31.20
2018-11-23T14:55:32.339Z,30.05
2018-11-23T14:58:01.278Z,29.80
2018-11-23T15:00:31.729Z,30.80
2018-11-23T15:03:01.686Z,30.97
2018-11-23T15:05:30.620Z,31.53
2018-11-23T15:07:59.588Z,31.23
2018-11-23T15:10:29.633Z,32.00
2018-11-23T15:13:00.067Z,30.60
2018-11-23T15:15:30.294Z,31.65
2018-11-23T15:18:00.001Z,31.10
2018-11-23T15:20:31.671Z,31.85
2018-11-23T15:23:02.320Z,30.68
2018-11-23T15:25:31.238Z,31.20
2018-11-23T15:28:00.170Z,33.65
2018-11-23T15:30:30.563Z,31.30
2018-11-23T15:32:59.946Z,31.40
2018-11-23T15:35:30.051Z,31.30
2018-11-23T15:37:59.002Z,32.60
2018-11-23T15:40:28.903Z,31.45
2018-11-23T15:42:59.451Z,33.55
2018-11-23T15:45:29.576Z,33.50
2018-11-23T15:47:59.154Z,34.00
2018-11-23T15:50:29.799Z,34.65
2018-11-23T15:52:58.781Z,32.70
2018-11-23T15:55:29.668Z,34.00
2018-11-23T15:58:00.451Z,32.90
2018-11-23T16:00:34.071Z,33.27
2018-11-23T16:03:03.012Z,35.58
2018-11-23T16:05:32.035Z,37.67
2018-11-23T16:08:03.579Z,35.23
2018-11-23T16:10:36.289Z,36.68
2018-11-23T16:13:11.198Z,39.00
2018-11-23T16:15:35.881Z,37.80
2018-11-23T16:18:05.381Z,33.33
2018-11-23T16:20:37.688Z,34.90
2018-11-23T16:23:08.607Z,37.83
2018-11-23T16:25:37.720Z,37.15
2018-11-23T16:28:07.803Z,34.37
2018-11-23T16:30:38.959Z,34.73
2018-11-23T16:33:09.687Z,34.07
2018-11-23T16:35:39.395Z,35.07
2018-11-23T16:38:10.647Z,36.83
2018-11-23T16:40:42.915Z,36.10
2018-11-23T16:43:13.459Z,34.35
2018-11-23T16:45:43.072Z,33.87
2018-11-23T16:48:12.934Z,36.27
2018-11-23T16:50:41.890Z,36.23
2018-11-23T16:53:10.801Z,39.43
2018-11-23T16:55:39.745Z,49.40
2018-11-23T16:58:10.756Z,71.02
2018-11-23T17:00:40.315Z,62.98
2018-11-23T17:03:10.511Z,49.07
2018-11-23T17:05:41.019Z,44.97
2018-11-23T17:08:10.302Z,40.67
2018-11-23T17:10:39.229Z,37.85
2018-11-23T17:13:08.414Z,36.23
2018-11-23T17:15:37.446Z,36.50
2018-11-23T17:18:06.717Z,35.93
2018-11-23T17:20:36.195Z,34.63
2018-11-23T17:23:07.513Z,36.90
2018-11-23T17:25:36.490Z,36.80
2018-11-23T17:28:06.938Z,36.23
2018-11-23T17:30:36.465Z,35.23
2018-11-23T17:33:05.863Z,35.78
2018-11-23T17:35:34.868Z,34.17
2018-11-23T17:38:03.832Z,35.33
2018-11-23T17:40:34.699Z,36.13
2018-11-23T17:43:03.664Z,38.47
2018-11-23T17:45:33.259Z,36.27
2018-11-23T17:48:02.323Z,35.33
2018-11-23T17:50:32.795Z,36.77
2018-11-23T17:53:01.911Z,42.48
2018-11-23T17:55:30.911Z,51.83
2018-11-23T17:57:59.953Z,51.07
2018-11-23T18:00:30.077Z,53.93
2018-11-23T18:03:00.035Z,45.30
2018-11-23T18:05:29.600Z,39.70
2018-11-23T18:07:59.012Z,39.43
2018-11-23T18:10:29.338Z,37.70
2018-11-23T18:12:59.146Z,37.28
2018-11-23T18:15:29.446Z,36.80
2018-11-23T18:17:59.381Z,36.43
2018-11-23T18:20:29.043Z,35.75
2018-11-23T18:22:58.806Z,37.20
2018-11-23T18:25:30.193Z,35.23
2018-11-23T18:28:02.219Z,34.83
2018-11-23T18:30:32.477Z,35.80
2018-11-23T18:33:03.041Z,35.00
2018-11-23T18:35:32.004Z,35.60
2018-11-23T18:38:00.953Z,37.13
2018-11-23T18:40:36.705Z,38.53
2018-11-23T18:42:58.845Z,35.30
2018-11-23T18:45:27.774Z,36.45
2018-11-23T18:47:56.915Z,34.73
2018-11-23T18:50:25.842Z,35.70
2018-11-23T18:52:54.816Z,37.25
2018-11-23T18:55:23.749Z,35.50
2018-11-23T18:57:52.715Z,33.75
2018-11-23T19:00:21.863Z,32.63
2018-11-23T19:02:50.857Z,32.25
2018-11-23T19:05:22.451Z,32.85
2018-11-23T19:07:51.447Z,33.85
2018-11-23T19:10:20.489Z,34.27
2018-11-23T19:12:49.491Z,33.98
2018-11-23T19:15:25.322Z,36.38
2018-11-23T19:17:48.024Z,39.15
2018-11-23T19:20:24.223Z,38.40
2018-11-23T19:22:54.375Z,36.60
2018-11-23T19:25:23.360Z,35.40
2018-11-23T19:27:52.307Z,35.63
2018-11-23T19:30:28.065Z,35.33
2018-11-23T19:32:51.546Z,35.60
2018-11-23T19:35:20.525Z,33.85
2018-11-23T19:37:49.452Z,34.00
2018-11-23T19:40:18.409Z,35.43
2018-11-23T19:42:47.330Z,32.67
2018-11-23T19:45:17.656Z,32.45
2018-11-23T19:47:46.649Z,32.17
2018-11-23T19:50:17.711Z,33.83
2018-11-23T19:52:46.801Z,34.50
2018-11-23T19:55:16.862Z,34.55
2018-11-23T19:57:45.943Z,35.43
2018-11-23T20:00:17.283Z,36.60
2018-11-23T20:02:46.255Z,36.40
2018-11-23T20:05:15.227Z,35.28
2018-11-23T20:07:44.694Z,35.23
2018-11-23T20:10:15.810Z,34.43
2018-11-23T20:12:45.615Z,36.87
2018-11-23T20:15:15.763Z,37.60
2018-11-23T20:17:44.678Z,38.73
2018-11-23T20:20:14.748Z,41.13
2018-11-23T20:22:43.762Z,41.20
2018-11-23T20:25:15.709Z,41.92
2018-11-23T20:27:44.946Z,40.98
2018-11-23T20:30:15.012Z,40.23
2018-11-23T20:32:44.559Z,39.90
2018-11-23T20:35:14.601Z,42.17
2018-11-23T20:37:43.557Z,43.65
2018-11-23T20:40:15.071Z,44.93
2018-11-23T20:42:44.000Z,43.57
2018-11-23T20:45:13.377Z,41.53
2018-11-23T20:47:42.417Z,41.50
2018-11-23T20:50:12.502Z,41.28
2018-11-23T20:52:41.439Z,39.13
2018-11-23T20:55:11.812Z,37.47
2018-11-23T20:57:40.746Z,38.47
2018-11-23T21:00:14.791Z,40.40
2018-11-23T21:02:44.047Z,43.20
2018-11-23T21:05:14.213Z,43.53
2018-11-23T21:07:43.148Z,41.75
2018-11-23T21:10:20.357Z,43.33
2018-11-23T21:12:44.357Z,42.67
2018-11-23T21:15:25.442Z,45.30
2018-11-23T21:17:54.617Z,42.05
2018-11-23T21:20:23.598Z,44.80
2018-11-23T21:22:52.558Z,46.58
2018-11-23T21:25:21.542Z,43.43
2018-11-23T21:27:50.469Z,42.17
2018-11-23T21:30:20.701Z,40.43
2018-11-23T21:32:49.772Z,43.83
2018-11-23T21:35:18.722Z,42.30
2018-11-23T21:37:47.652Z,56.13
2018-11-23T21:40:17.026Z,56.73
2018-11-23T21:42:45.966Z,49.18
2018-11-23T21:45:15.877Z,64.05
2018-11-23T21:47:44.826Z,69.42
2018-11-23T21:50:15.718Z,47.70
2018-11-23T21:52:44.720Z,47.80
2018-11-23T21:55:15.991Z,45.48
2018-11-23T21:57:44.977Z,45.50
2018-11-23T22:00:14.876Z,46.30
2018-11-23T22:02:43.912Z,43.38
2018-11-23T22:05:12.928Z,47.60
2018-11-23T22:07:41.905Z,44.00
2018-11-23T22:10:13.821Z,47.98
2018-11-23T22:12:42.861Z,43.70
2018-11-23T22:15:14.467Z,42.53
2018-11-23T22:17:43.436Z,41.95
2018-11-23T22:20:13.573Z,43.68
2018-11-23T22:22:42.507Z,41.20
2018-11-23T22:25:13.620Z,41.30
2018-11-23T22:27:42.750Z,44.58
2018-11-23T22:30:30.281Z,42.35
2018-11-23T22:32:59.796Z,44.37
2018-11-23T22:35:29.871Z,43.95
2018-11-23T22:37:58.816Z,42.37
2018-11-23T22:40:27.779Z,46.05
2018-11-23T22:42:57.915Z,47.53
2018-11-23T22:45:26.882Z,48.23
2018-11-23T22:47:55.814Z,49.08
2018-11-23T22:50:24.968Z,50.92
2018-11-23T22:52:53.916Z,50.50
2018-11-23T22:55:22.876Z,47.60
2018-11-23T22:57:51.803Z,48.38
2018-11-23T23:00:27.602Z,45.45
2018-11-23T23:02:56.539Z,45.25
2018-11-23T23:05:25.509Z,50.43
2018-11-23T23:07:54.471Z,47.85
2018-11-23T23:10:23.421Z,46.58
2018-11-23T23:12:52.343Z,44.70
2018-11-23T23:15:21.278Z,50.00
2018-11-23T23:17:50.234Z,52.15
2018-11-23T23:20:20.238Z,45.05
2018-11-23T23:22:49.168Z,52.00
2018-11-23T23:25:18.105Z,46.77
2018-11-23T23:27:47.071Z,48.20
2018-11-23T23:30:17.028Z,48.78
2018-11-23T23:32:46.647Z,47.08
2018-11-23T23:35:16.339Z,45.23
2018-11-23T23:37:45.322Z,45.98
2018-11-23T23:40:15.460Z,45.90
2018-11-23T23:42:44.439Z,45.40
2018-11-23T23:45:14.368Z,43.50
2018-11-23T23:47:43.328Z,45.65
2018-11-23T23:50:17.446Z,44.20
2018-11-23T23:52:46.412Z,44.98
2018-11-23T23:55:15.323Z,42.93
2018-11-23T23:57:45.270Z,43.65
